Time,TemperatureF,DewpointF,PressureIn,WindDirection,WindDirectionDegrees,WindSpeedMPH,WindSpeedGustMPH,Humidity,HourlyPrecipIn,Conditions,Clouds,dailyrainin,SoftwareType,DateUTC
2013-09-30 00:23:00,55.0,47.0,29.90,South,178,3.0,4.0,73,0.00,,,0.01,,2013-09-30 05:23:00,
2013-09-30 00:43:00,54.0,46.0,29.90,SE,140,4.0,5.0,74,0.00,,,0.01,,2013-09-30 05:43:00,
2013-09-30 00:52:00,54.0,47.0,29.90,South,170,2.0,4.0,76,0.00,,,0.01,,2013-09-30 05:52:00,
2013-09-30 01:12:00,53.0,46.0,29.89,SSE,168,3.0,4.0,76,0.00,,,0.01,,2013-09-30 06:12:00,
2013-09-30 01:22:00,52.0,46.0,29.89,SSE,168,3.0,3.0,79,0.00,,,0.01,,2013-09-30 06:22:00,
2013-09-30 01:52:00,53.0,47.0,29.88,SSE,155,4.0,6.0,80,0.00,,,0.01,,2013-09-30 06:52:00,
2013-09-30 02:12:00,53.0,47.0,29.87,SSE,163,4.0,6.0,81,0.00,,,0.01,,2013-09-30 07:12:00,
2013-09-30 02:22:00,53.0,47.0,29.87,SSE,163,4.0,6.0,81,0.00,,,0.01,,2013-09-30 07:22:00,
2013-09-30 02:52:00,54.0,48.0,29.91,South,180,0.0,5.0,80,0.00,,,0.01,,2013-09-30 07:52:00,
2013-09-30 03:12:00,54.0,48.0,29.91,South,179,0.0,2.0,80,0.00,,,0.01,,2013-09-30 08:12:00,
2013-09-30 03:22:00,53.0,48.0,29.90,South,180,2.0,5.0,82,0.00,,,0.01,,2013-09-30 08:22:00,
2013-09-30 03:52:00,52.0,47.0,29.90,South,180,0.0,1.0,84,0.00,,,0.01,,2013-09-30 08:52:00,
2013-09-30 04:11:00,51.0,47.0,29.89,South,180,0.0,2.0,85,0.00,,,0.00,,2013-09-30 09:11:00,
2013-09-30 04:22:00,51.0,48.0,29.88,South,180,1.0,4.0,88,0.00,,,0.00,,2013-09-30 09:22:00,
2013-09-30 04:53:00,51.0,48.0,29.89,SE,133,2.0,4.0,88,0.00,,,0.00,,2013-09-30 09:53:00,
2013-09-30 05:13:00,53.0,49.0,29.89,South,184,4.0,5.0,87,0.00,,,0.00,,2013-09-30 10:13:00,
2013-09-30 05:22:00,53.0,49.0,29.89,South,180,3.0,7.0,85,0.00,,,0.00,,2013-09-30 10:22:00,
2013-09-30 05:53:00,53.0,49.0,29.89,South,180,5.0,7.0,85,0.00,,,0.00,,2013-09-30 10:53:00,
2013-09-30 06:12:00,54.0,50.0,29.88,SSE,157,4.0,9.0,85,0.00,,,0.00,,2013-09-30 11:12:00,
2013-09-30 06:22:00,54.0,50.0,29.88,South,186,5.0,13.0,85,0.00,,,0.00,,2013-09-30 11:22:00,
2013-09-30 06:52:00,54.0,49.0,29.88,South,171,4.0,9.0,84,0.00,,,0.00,,2013-09-30 11:52:00,
2013-09-30 07:12:00,54.0,49.0,29.88,South,176,5.0,9.0,84,0.00,,,0.00,,2013-09-30 12:12:00,
2013-09-30 07:22:00,54.0,49.0,29.88,South,169,3.0,7.0,84,0.00,,,0.00,,2013-09-30 12:22:00,
2013-09-30 07:52:00,54.0,49.0,29.87,South,178,5.0,11.0,83,0.00,,,0.00,,2013-09-30 12:52:00,
2013-09-30 08:11:00,54.0,49.0,29.88,South,175,6.0,10.0,83,0.00,,,0.00,,2013-09-30 13:11:00,
2013-09-30 08:22:00,54.0,49.0,29.88,SE,145,4.0,9.0,82,0.00,,,0.00,,2013-09-30 13:22:00,
2013-09-30 08:52:00,56.0,50.0,29.88,SSW,193,4.0,9.0,80,0.00,,,0.00,,2013-09-30 13:52:00,
2013-09-30 09:11:00,57.0,50.0,29.88,SE,146,5.0,10.0,78,0.00,,,0.00,,2013-09-30 14:11:00,
2013-09-30 09:22:00,59.0,51.0,29.88,SSE,165,5.0,12.0,75,0.00,,,0.00,,2013-09-30 14:22:00,
2013-09-30 09:52:00,61.0,52.0,29.86,SSE,164,5.0,15.0,71,0.00,,,0.00,,2013-09-30 14:52:00,
2013-09-30 10:11:00,63.0,52.0,29.87,SSE,163,5.0,13.0,68,0.00,,,0.00,,2013-09-30 15:11:00,
2013-09-30 10:23:00,65.0,53.0,29.87,South,176,6.0,11.0,65,0.00,,,0.00,,2013-09-30 15:23:00,
2013-09-30 10:45:00,67.0,52.0,29.87,SSE,163,5.0,12.0,59,0.00,,,0.00,,2013-09-30 15:45:00,
2013-09-30 10:54:00,68.0,53.0,29.87,South,173,6.0,10.0,58,0.00,,,0.00,,2013-09-30 15:54:00,
2013-09-30 11:14:00,68.0,52.0,29.87,SE,135,5.0,10.0,56,0.00,,,0.00,,2013-09-30 16:14:00,
2013-09-30 11:24:00,69.0,52.0,29.87,SSW,193,3.0,10.0,55,0.00,,,0.00,,2013-09-30 16:24:00,
2013-09-30 11:44:00,71.0,52.0,29.86,South,179,5.0,14.0,51,0.00,,,0.00,,2013-09-30 16:44:00,
2013-09-30 11:53:00,72.0,53.0,29.86,SSW,193,5.0,12.0,51,0.00,,,0.00,,2013-09-30 16:53:00,
2013-09-30 12:13:00,74.0,54.0,29.86,ESE,123,1.0,14.0,49,0.00,,,0.00,,2013-09-30 17:13:00,
2013-09-30 12:22:00,75.0,53.0,29.85,South,181,2.0,11.0,46,0.00,,,0.00,,2013-09-30 17:22:00,
2013-09-30 12:53:00,76.0,51.0,29.84,SE,135,4.0,15.0,42,0.00,,,0.00,,2013-09-30 17:53:00,
2013-09-30 13:12:00,77.0,53.0,29.83,South,186,6.0,13.0,43,0.00,,,0.00,,2013-09-30 18:12:00,
2013-09-30 13:22:00,78.0,54.0,29.83,ENE,63,4.0,12.0,43,0.00,,,0.00,,2013-09-30 18:22:00,
2013-09-30 13:53:00,79.0,52.0,29.82,SSE,157,7.0,13.0,39,0.00,,,0.00,,2013-09-30 18:53:00,
2013-09-30 14:12:00,80.0,53.0,29.81,SSE,165,8.0,15.0,39,0.00,,,0.00,,2013-09-30 19:12:00,
2013-09-30 14:22:00,81.0,52.0,29.81,South,185,11.0,17.0,36,0.00,,,0.00,,2013-09-30 19:22:00,
2013-09-30 14:53:00,81.0,52.0,29.79,SW,236,7.0,14.0,36,0.00,,,0.00,,2013-09-30 19:53:00,
2013-09-30 15:13:00,81.0,52.0,29.78,SSE,159,5.0,19.0,37,0.00,,,0.00,,2013-09-30 20:13:00,
2013-09-30 15:23:00,81.0,52.0,29.78,South,179,6.0,13.0,36,0.00,,,0.00,,2013-09-30 20:23:00,
2013-09-30 15:53:00,81.0,52.0,29.78,South,169,8.0,17.0,37,0.00,,,0.00,,2013-09-30 20:53:00,
2013-09-30 16:11:00,82.0,52.0,29.78,South,186,6.0,16.0,36,0.00,,,0.00,,2013-09-30 21:11:00,
2013-09-30 16:22:00,82.0,53.0,29.77,SSE,157,7.0,14.0,37,0.00,,,0.00,,2013-09-30 21:22:00,
2013-09-30 16:54:00,82.0,53.0,29.77,SSE,161,5.0,15.0,37,0.00,,,0.00,,2013-09-30 21:54:00,
2013-09-30 17:23:00,81.0,53.0,29.77,SSE,163,6.0,15.0,38,0.00,,,0.00,,2013-09-30 22:23:00,
2013-09-30 17:44:00,81.0,54.0,29.76,South,186,6.0,11.0,39,0.00,,,0.00,,2013-09-30 22:44:00,
2013-09-30 17:54:00,81.0,54.0,29.76,SSE,149,9.0,13.0,39,0.00,,,0.00,,2013-09-30 22:54:00,
2013-09-30 18:12:00,79.0,53.0,29.77,SSE,167,5.0,14.0,40,0.00,,,0.00,,2013-09-30 23:12:00,
2013-09-30 18:23:00,79.0,53.0,29.77,SSE,156,9.0,14.0,41,0.00,,,0.00,,2013-09-30 23:23:00,
2013-09-30 18:53:00,77.0,54.0,29.77,South,171,6.0,11.0,45,0.00,,,0.00,,2013-09-30 23:53:00,
2013-09-30 19:12:00,76.0,54.0,29.77,South,169,8.0,12.0,46,0.00,,,0.00,,2013-10-01 00:12:00,
2013-09-30 19:22:00,75.0,54.0,29.77,SSE,161,4.0,10.0,48,0.00,,,0.00,,2013-10-01 00:22:00,
2013-09-30 19:43:00,74.0,54.0,29.77,South,179,6.0,10.0,49,0.00,,,0.00,,2013-10-01 00:43:00,
2013-09-30 19:52:00,72.0,53.0,29.77,South,173,2.0,7.0,51,0.00,,,0.00,,2013-10-01 00:52:00,
2013-09-30 21:12:00,65.0,52.0,29.78,South,180,2.0,3.0,63,0.00,,,0.00,,2013-10-01 02:12:00,
2013-09-30 21:22:00,65.0,52.0,29.78,South,179,1.0,3.0,63,0.00,,,0.00,,2013-10-01 02:22:00,
2013-09-30 21:52:00,63.0,53.0,29.79,South,179,2.0,2.0,69,0.00,,,0.00,,2013-10-01 02:52:00,
2013-09-30 22:22:00,63.0,53.0,29.79,SSE,156,4.0,9.0,70,0.00,,,0.00,,2013-10-01 03:22:00,
2013-09-30 22:55:00,67.0,54.0,29.79,SSE,157,4.0,9.0,62,0.00,,,0.00,,2013-10-01 03:55:00,
2013-09-30 23:14:00,67.0,53.0,29.79,South,171,5.0,17.0,60,0.00,,,0.00,,2013-10-01 04:14:00,
2013-09-30 23:24:00,67.0,52.0,29.79,South,185,7.0,11.0,59,0.00,,,0.00,,2013-10-01 04:24:00,